sensor_id;sensor_type;location;lat;lon;timestamp;temperature;humidity
17284;DHT22;8760;52.248;20.952;2022-09-03T00:02:23;11.30;1.00
17284;DHT22;8760;52.248;20.952;2022-09-03T00:04:56;11.30;1.00
17284;DHT22;8760;52.248;20.952;2022-09-03T00:07:29;11.30;1.00
17284;DHT22;8760;52.248;20.952;2022-09-03T00:10:02;11.30;99.90
17284;DHT22;8760;52.248;20.952;2022-09-03T00:12:33;11.30;99.90
17284;DHT22;8760;52.248;20.952;2022-09-03T00:15:05;11.30;99.90
17284;DHT22;8760;52.248;20.952;2022-09-03T00:17:35;11.30;99.90
17284;DHT22;8760;52.248;20.952;2022-09-03T00:20:07;11.30;99.90
17284;DHT22;8760;52.248;20.952;2022-09-03T00:22:38;11.30;1.00
17284;DHT22;8760;52.248;20.952;2022-09-03T00:25:10;11.30;1.00
17284;DHT22;8760;52.248;20.952;2022-09-03T00:27:41;11.20;1.00
17284;DHT22;8760;52.248;20.952;2022-09-03T00:30:10;11.20;1.00
17284;DHT22;8760;52.248;20.952;2022-09-03T00:32:40;11.20;1.00
17284;DHT22;8760;52.248;20.952;2022-09-03T00:35:13;11.20;1.00
17284;DHT22;8760;52.248;20.952;2022-09-03T00:37:41;11.10;99.90
17284;DHT22;8760;52.248;20.952;2022-09-03T00:40:19;11.10;9.80
17284;DHT22;8760;52.248;20.952;2022-09-03T00:42:54;11.10;1.00
17284;DHT22;8760;52.248;20.952;2022-09-03T00:45:30;11.00;97.20
17284;DHT22;8760;52.248;20.952;2022-09-03T00:48:08;11.10;99.90
17284;DHT22;8760;52.248;20.952;2022-09-03T00:50:45;11.00;99.90
17284;DHT22;8760;52.248;20.952;2022-09-03T00:53:20;11.00;23.10
17284;DHT22;8760;52.248;20.952;2022-09-03T00:55:55;11.00;99.90
17284;DHT22;8760;52.248;20.952;2022-09-03T01:01:23;11.00;99.90
17284;DHT22;8760;52.248;20.952;2022-09-03T01:03:58;10.90;1.00
17284;DHT22;8760;52.248;20.952;2022-09-03T01:06:37;10.90;1.00
17284;DHT22;8760;52.248;20.952;2022-09-03T01:09:16;10.90;1.00
17284;DHT22;8760;52.248;20.952;2022-09-03T01:11:53;10.90;1.00
17284;DHT22;8760;52.248;20.952;2022-09-03T01:14:31;10.80;3.70
17284;DHT22;8760;52.248;20.952;2022-09-03T01:17:02;10.80;1.00
17284;DHT22;8760;52.248;20.952;2022-09-03T01:19:53;10.80;99.90
17284;DHT22;8760;52.248;20.952;2022-09-03T01:22:41;10.70;99.90
17284;DHT22;8760;52.248;20.952;2022-09-03T01:25:16;10.70;1.00
17284;DHT22;8760;52.248;20.952;2022-09-03T01:27:59;10.70;99.90
17284;DHT22;8760;52.248;20.952;2022-09-03T01:30:30;10.70;87.30
17284;DHT22;8760;52.248;20.952;2022-09-03T01:33:04;10.60;1.00
17284;DHT22;8760;52.248;20.952;2022-09-03T01:35:39;10.70;1.00
17284;DHT22;8760;52.248;20.952;2022-09-03T01:38:19;10.60;99.90
17284;DHT22;8760;52.248;20.952;2022-09-03T01:40:59;10.60;1.00
17284;DHT22;8760;52.248;20.952;2022-09-03T01:43:56;10.50;1.00
17284;DHT22;8760;52.248;20.952;2022-09-03T01:46:34;10.50;99.90
17284;DHT22;8760;52.248;20.952;2022-09-03T01:49:08;10.50;99.90
17284;DHT22;8760;52.248;20.952;2022-09-03T01:51:38;10.50;1.00
17284;DHT22;8760;52.248;20.952;2022-09-03T01:57:22;10.50;99.90
17284;DHT22;8760;52.248;20.952;2022-09-03T01:59:57;10.50;99.90
17284;DHT22;8760;52.248;20.952;2022-09-03T02:02:27;10.50;66.00
17284;DHT22;8760;52.248;20.952;2022-09-03T02:04:57;10.50;27.20
17284;DHT22;8760;52.248;20.952;2022-09-03T02:07:28;10.40;1.00
17284;DHT22;8760;52.248;20.952;2022-09-03T02:09:58;10.40;1.00
17284;DHT22;8760;52.248;20.952;2022-09-03T02:12:24;10.40;86.30
17284;DHT22;8760;52.248;20.952;2022-09-03T02:14:54;10.40;1.00
17284;DHT22;8760;52.248;20.952;2022-09-03T02:17:21;10.40;1.00
17284;DHT22;8760;52.248;20.952;2022-09-03T02:19:47;10.40;1.00
17284;DHT22;8760;52.248;20.952;2022-09-03T02:22:14;10.40;1.00
17284;DHT22;8760;52.248;20.952;2022-09-03T02:24:41;10.40;99.90
17284;DHT22;8760;52.248;20.952;2022-09-03T02:27:08;10.30;99.90
17284;DHT22;8760;52.248;20.952;2022-09-03T02:29:35;10.30;99.90
17284;DHT22;8760;52.248;20.952;2022-09-03T02:32:03;10.30;99.90
17284;DHT22;8760;52.248;20.952;2022-09-03T02:34:30;10.30;21.20
17284;DHT22;8760;52.248;20.952;2022-09-03T02:36:57;10.30;1.00
17284;DHT22;8760;52.248;20.952;2022-09-03T02:39:24;10.30;1.00
17284;DHT22;8760;52.248;20.952;2022-09-03T02:41:54;10.30;1.00
17284;DHT22;8760;52.248;20.952;2022-09-03T02:44:26;10.30;99.90
17284;DHT22;8760;52.248;20.952;2022-09-03T02:46:58;10.30;1.00
17284;DHT22;8760;52.248;20.952;2022-09-03T02:49:27;10.30;1.00
17284;DHT22;8760;52.248;20.952;2022-09-03T02:51:57;10.30;1.00
17284;DHT22;8760;52.248;20.952;2022-09-03T02:54:25;10.30;1.00
17284;DHT22;8760;52.248;20.952;2022-09-03T02:56:52;10.30;99.90
17284;DHT22;8760;52.248;20.952;2022-09-03T02:59:19;10.30;1.00
17284;DHT22;8760;52.248;20.952;2022-09-03T03:01:47;10.20;99.90
17284;DHT22;8760;52.248;20.952;2022-09-03T03:04:14;10.20;1.00
17284;DHT22;8760;52.248;20.952;2022-09-03T03:06:42;10.20;1.00
17284;DHT22;8760;52.248;20.952;2022-09-03T03:09:09;10.20;1.00
17284;DHT22;8760;52.248;20.952;2022-09-03T03:11:36;10.10;1.00
17284;DHT22;8760;52.248;20.952;2022-09-03T03:14:03;10.10;1.00
17284;DHT22;8760;52.248;20.952;2022-09-03T03:16:29;10.10;99.90
17284;DHT22;8760;52.248;20.952;2022-09-03T03:18:57;10.00;1.00
17284;DHT22;8760;52.248;20.952;2022-09-03T03:21:24;10.00;1.00
17284;DHT22;8760;52.248;20.952;2022-09-03T03:23:52;10.00;1.00
17284;DHT22;8760;52.248;20.952;2022-09-03T03:26:20;10.00;99.90
17284;DHT22;8760;52.248;20.952;2022-09-03T03:28:49;10.00;1.00
17284;DHT22;8760;52.248;20.952;2022-09-03T03:31:17;9.90;94.50
17284;DHT22;8760;52.248;20.952;2022-09-03T03:33:50;9.90;99.90
17284;DHT22;8760;52.248;20.952;2022-09-03T03:36:17;9.90;1.00
17284;DHT22;8760;52.248;20.952;2022-09-03T03:38:44;9.90;99.90
17284;DHT22;8760;52.248;20.952;2022-09-03T03:41:14;9.90;99.90
17284;DHT22;8760;52.248;20.952;2022-09-03T03:43:42;9.90;99.90
17284;DHT22;8760;52.248;20.952;2022-09-03T03:46:08;9.90;99.90
17284;DHT22;8760;52.248;20.952;2022-09-03T03:48:36;9.90;99.90
17284;DHT22;8760;52.248;20.952;2022-09-03T03:51:05;9.80;99.90
17284;DHT22;8760;52.248;20.952;2022-09-03T03:53:32;9.80;1.00
17284;DHT22;8760;52.248;20.952;2022-09-03T03:56:01;9.80;99.90
17284;DHT22;8760;52.248;20.952;2022-09-03T03:58:30;9.80;99.90
17284;DHT22;8760;52.248;20.952;2022-09-03T04:01:04;9.80;99.90
17284;DHT22;8760;52.248;20.952;2022-09-03T04:03:31;9.80;1.00
17284;DHT22;8760;52.248;20.952;2022-09-03T04:05:58;9.70;99.90
17284;DHT22;8760;52.248;20.952;2022-09-03T04:08:25;9.70;1.00
17284;DHT22;8760;52.248;20.952;2022-09-03T04:10:52;9.80;99.90
17284;DHT22;8760;52.248;20.952;2022-09-03T04:13:19;9.70;99.90
17284;DHT22;8760;52.248;20.952;2022-09-03T04:15:47;9.80;99.90
17284;DHT22;8760;52.248;20.952;2022-09-03T04:18:13;9.80;1.00
17284;DHT22;8760;52.248;20.952;2022-09-03T04:20:40;9.80;1.00
17284;DHT22;8760;52.248;20.952;2022-09-03T04:23:07;9.70;1.00
17284;DHT22;8760;52.248;20.952;2022-09-03T04:25:34;9.80;1.00
17284;DHT22;8760;52.248;20.952;2022-09-03T04:28:01;9.80;99.90
17284;DHT22;8760;52.248;20.952;2022-09-03T04:30:29;9.80;99.90
17284;DHT22;8760;52.248;20.952;2022-09-03T04:32:57;9.80;99.90
17284;DHT22;8760;52.248;20.952;2022-09-03T04:35:25;9.80;99.90
17284;DHT22;8760;52.248;20.952;2022-09-03T04:37:58;9.80;1.00
17284;DHT22;8760;52.248;20.952;2022-09-03T04:40:24;9.90;1.00
17284;DHT22;8760;52.248;20.952;2022-09-03T04:42:56;9.90;1.00
17284;DHT22;8760;52.248;20.952;2022-09-03T04:45:23;9.90;1.00
17284;DHT22;8760;52.248;20.952;2022-09-03T04:47:58;10.00;1.00
17284;DHT22;8760;52.248;20.952;2022-09-03T04:50:26;10.10;1.00
17284;DHT22;8760;52.248;20.952;2022-09-03T04:52:53;10.10;1.00
17284;DHT22;8760;52.248;20.952;2022-09-03T04:55:20;10.10;99.90
17284;DHT22;8760;52.248;20.952;2022-09-03T04:57:47;10.10;65.30
17284;DHT22;8760;52.248;20.952;2022-09-03T05:00:14;10.20;1.00
17284;DHT22;8760;52.248;20.952;2022-09-03T05:02:42;10.30;1.00
17284;DHT22;8760;52.248;20.952;2022-09-03T05:05:12;10.30;99.90
17284;DHT22;8760;52.248;20.952;2022-09-03T05:07:39;10.40;1.00
17284;DHT22;8760;52.248;20.952;2022-09-03T05:10:08;10.50;99.90
17284;DHT22;8760;52.248;20.952;2022-09-03T05:12:37;10.60;1.00
17284;DHT22;8760;52.248;20.952;2022-09-03T05:15:05;10.70;1.00
17284;DHT22;8760;52.248;20.952;2022-09-03T05:17:32;10.70;1.00
17284;DHT22;8760;52.248;20.952;2022-09-03T05:19:59;10.80;99.90
17284;DHT22;8760;52.248;20.952;2022-09-03T05:22:27;10.80;99.90
17284;DHT22;8760;52.248;20.952;2022-09-03T05:24:54;10.90;1.00
17284;DHT22;8760;52.248;20.952;2022-09-03T05:27:21;11.00;1.00
17284;DHT22;8760;52.248;20.952;2022-09-03T05:29:48;11.10;99.90
17284;DHT22;8760;52.248;20.952;2022-09-03T05:32:14;11.20;99.90
17284;DHT22;8760;52.248;20.952;2022-09-03T05:34:41;11.30;1.00
17284;DHT22;8760;52.248;20.952;2022-09-03T05:37:09;11.40;1.00
17284;DHT22;8760;52.248;20.952;2022-09-03T05:39:38;11.50;1.00
17284;DHT22;8760;52.248;20.952;2022-09-03T05:42:05;11.70;1.00
17284;DHT22;8760;52.248;20.952;2022-09-03T05:44:31;11.80;99.90
17284;DHT22;8760;52.248;20.952;2022-09-03T05:46:59;11.90;99.90
17284;DHT22;8760;52.248;20.952;2022-09-03T05:49:25;12.10;99.90
17284;DHT22;8760;52.248;20.952;2022-09-03T05:51:53;12.20;1.00
17284;DHT22;8760;52.248;20.952;2022-09-03T05:54:19;12.30;1.00
17284;DHT22;8760;52.248;20.952;2022-09-03T05:56:47;12.40;99.90
17284;DHT22;8760;52.248;20.952;2022-09-03T05:59:14;12.60;99.90
17284;DHT22;8760;52.248;20.952;2022-09-03T06:01:43;12.80;99.90
17284;DHT22;8760;52.248;20.952;2022-09-03T06:04:13;12.90;99.90
17284;DHT22;8760;52.248;20.952;2022-09-03T06:06:42;13.20;99.90
17284;DHT22;8760;52.248;20.952;2022-09-03T06:09:10;13.40;99.90
17284;DHT22;8760;52.248;20.952;2022-09-03T06:11:38;13.70;35.60
17284;DHT22;8760;52.248;20.952;2022-09-03T06:14:09;14.10;1.00
17284;DHT22;8760;52.248;20.952;2022-09-03T06:16:38;14.40;1.00
17284;DHT22;8760;52.248;20.952;2022-09-03T06:19:05;14.60;1.00
17284;DHT22;8760;52.248;20.952;2022-09-03T06:21:34;14.80;1.00
17284;DHT22;8760;52.248;20.952;2022-09-03T06:24:02;14.90;1.00
17284;DHT22;8760;52.248;20.952;2022-09-03T06:26:28;15.00;1.00
17284;DHT22;8760;52.248;20.952;2022-09-03T06:28:56;15.00;1.00
17284;DHT22;8760;52.248;20.952;2022-09-03T06:31:25;15.20;1.00
17284;DHT22;8760;52.248;20.952;2022-09-03T06:33:52;15.50;1.00
17284;DHT22;8760;52.248;20.952;2022-09-03T06:36:20;15.80;99.90
17284;DHT22;8760;52.248;20.952;2022-09-03T06:38:51;16.20;99.90
17284;DHT22;8760;52.248;20.952;2022-09-03T06:41:20;16.50;99.90
17284;DHT22;8760;52.248;20.952;2022-09-03T06:43:50;16.90;99.90
17284;DHT22;8760;52.248;20.952;2022-09-03T06:46:19;17.40;99.90
17284;DHT22;8760;52.248;20.952;2022-09-03T06:48:47;17.70;99.90
17284;DHT22;8760;52.248;20.952;2022-09-03T06:51:16;17.80;99.90
17284;DHT22;8760;52.248;20.952;2022-09-03T06:53:45;17.90;99.90
17284;DHT22;8760;52.248;20.952;2022-09-03T06:56:14;18.30;99.90
17284;DHT22;8760;52.248;20.952;2022-09-03T06:58:42;18.80;99.90
17284;DHT22;8760;52.248;20.952;2022-09-03T07:01:12;19.30;99.90
17284;DHT22;8760;52.248;20.952;2022-09-03T07:03:40;20.00;69.10
17284;DHT22;8760;52.248;20.952;2022-09-03T07:06:10;20.40;41.90
17284;DHT22;8760;52.248;20.952;2022-09-03T07:08:38;20.40;26.00
17284;DHT22;8760;52.248;20.952;2022-09-03T07:11:09;20.90;18.70
17284;DHT22;8760;52.248;20.952;2022-09-03T07:13:37;21.10;10.60
17284;DHT22;8760;52.248;20.952;2022-09-03T07:16:07;21.40;2.30
17284;DHT22;8760;52.248;20.952;2022-09-03T07:18:34;21.70;1.00
17284;DHT22;8760;52.248;20.952;2022-09-03T07:21:03;22.00;1.00
17284;DHT22;8760;52.248;20.952;2022-09-03T07:23:31;22.40;1.00
17284;DHT22;8760;52.248;20.952;2022-09-03T07:26:00;22.60;1.00
17284;DHT22;8760;52.248;20.952;2022-09-03T07:28:27;23.00;1.00
17284;DHT22;8760;52.248;20.952;2022-09-03T07:31:00;23.40;1.00
17284;DHT22;8760;52.248;20.952;2022-09-03T07:33:28;23.30;1.00
17284;DHT22;8760;52.248;20.952;2022-09-03T07:36:00;23.60;1.00
17284;DHT22;8760;52.248;20.952;2022-09-03T07:38:27;23.80;1.00
17284;DHT22;8760;52.248;20.952;2022-09-03T07:40:58;23.90;1.00
17284;DHT22;8760;52.248;20.952;2022-09-03T07:43:25;24.10;1.00
17284;DHT22;8760;52.248;20.952;2022-09-03T07:45:52;24.10;1.00
17284;DHT22;8760;52.248;20.952;2022-09-03T07:48:20;24.60;1.00
17284;DHT22;8760;52.248;20.952;2022-09-03T07:50:48;24.60;1.00
17284;DHT22;8760;52.248;20.952;2022-09-03T07:53:15;25.10;1.00
17284;DHT22;8760;52.248;20.952;2022-09-03T07:55:45;25.20;1.00
17284;DHT22;8760;52.248;20.952;2022-09-03T07:58:13;25.30;1.00
17284;DHT22;8760;52.248;20.952;2022-09-03T08:00:40;25.40;1.00
17284;DHT22;8760;52.248;20.952;2022-09-03T08:03:07;25.80;1.00
17284;DHT22;8760;52.248;20.952;2022-09-03T08:05:35;26.00;1.00
17284;DHT22;8760;52.248;20.952;2022-09-03T08:08:03;25.60;1.00
17284;DHT22;8760;52.248;20.952;2022-09-03T08:10:32;25.80;1.00
17284;DHT22;8760;52.248;20.952;2022-09-03T08:12:59;26.00;1.00
17284;DHT22;8760;52.248;20.952;2022-09-03T08:15:31;26.10;1.00
17284;DHT22;8760;52.248;20.952;2022-09-03T08:17:58;26.60;1.00
17284;DHT22;8760;52.248;20.952;2022-09-03T08:20:25;27.10;1.00
17284;DHT22;8760;52.248;20.952;2022-09-03T08:22:52;27.00;1.00
17284;DHT22;8760;52.248;20.952;2022-09-03T08:25:19;27.30;1.00
17284;DHT22;8760;52.248;20.952;2022-09-03T08:27:46;27.90;1.00
17284;DHT22;8760;52.248;20.952;2022-09-03T08:30:12;27.90;1.00
17284;DHT22;8760;52.248;20.952;2022-09-03T08:32:40;28.00;1.00
17284;DHT22;8760;52.248;20.952;2022-09-03T08:35:07;28.10;1.00
17284;DHT22;8760;52.248;20.952;2022-09-03T08:37:34;28.30;1.00
17284;DHT22;8760;52.248;20.952;2022-09-03T08:42:40;28.50;1.00
17284;DHT22;8760;52.248;20.952;2022-09-03T08:45:16;28.60;1.00
17284;DHT22;8760;52.248;20.952;2022-09-03T08:47:48;28.30;1.00
17284;DHT22;8760;52.248;20.952;2022-09-03T08:50:21;28.70;1.00
17284;DHT22;8760;52.248;20.952;2022-09-03T08:52:51;28.90;1.00
17284;DHT22;8760;52.248;20.952;2022-09-03T08:55:25;29.00;1.00
17284;DHT22;8760;52.248;20.952;2022-09-03T08:57:56;29.10;1.00
17284;DHT22;8760;52.248;20.952;2022-09-03T09:00:24;29.00;1.00
17284;DHT22;8760;52.248;20.952;2022-09-03T09:03:13;29.30;1.00
17284;DHT22;8760;52.248;20.952;2022-09-03T09:05:46;30.00;1.00
17284;DHT22;8760;52.248;20.952;2022-09-03T09:08:23;30.10;1.00
17284;DHT22;8760;52.248;20.952;2022-09-03T09:11:00;29.90;1.00
17284;DHT22;8760;52.248;20.952;2022-09-03T09:13:31;29.10;1.00
17284;DHT22;8760;52.248;20.952;2022-09-03T09:16:05;29.20;1.00
17284;DHT22;8760;52.248;20.952;2022-09-03T09:18:46;29.50;1.00
17284;DHT22;8760;52.248;20.952;2022-09-03T09:21:19;29.70;1.00
17284;DHT22;8760;52.248;20.952;2022-09-03T09:23:48;29.30;1.00
17284;DHT22;8760;52.248;20.952;2022-09-03T09:26:17;29.40;1.00
17284;DHT22;8760;52.248;20.952;2022-09-03T09:28:46;29.80;1.00
17284;DHT22;8760;52.248;20.952;2022-09-03T09:31:16;29.60;1.00
17284;DHT22;8760;52.248;20.952;2022-09-03T09:33:46;30.10;1.00
17284;DHT22;8760;52.248;20.952;2022-09-03T09:36:14;30.50;1.00
17284;DHT22;8760;52.248;20.952;2022-09-03T09:38:43;30.60;1.00
17284;DHT22;8760;52.248;20.952;2022-09-03T09:41:12;30.60;1.00
17284;DHT22;8760;52.248;20.952;2022-09-03T09:43:40;31.00;1.00
17284;DHT22;8760;52.248;20.952;2022-09-03T09:46:11;31.00;1.00
17284;DHT22;8760;52.248;20.952;2022-09-03T09:48:47;31.50;1.00
17284;DHT22;8760;52.248;20.952;2022-09-03T09:51:18;31.20;1.00
17284;DHT22;8760;52.248;20.952;2022-09-03T09:53:46;31.50;1.00
17284;DHT22;8760;52.248;20.952;2022-09-03T09:56:20;31.40;1.00
17284;DHT22;8760;52.248;20.952;2022-09-03T09:58:47;31.60;1.00
17284;DHT22;8760;52.248;20.952;2022-09-03T10:01:18;31.10;1.00
17284;DHT22;8760;52.248;20.952;2022-09-03T10:03:51;31.40;1.00
17284;DHT22;8760;52.248;20.952;2022-09-03T10:06:22;31.30;1.00
17284;DHT22;8760;52.248;20.952;2022-09-03T10:09:09;31.70;1.00
17284;DHT22;8760;52.248;20.952;2022-09-03T10:11:37;31.40;1.00
17284;DHT22;8760;52.248;20.952;2022-09-03T10:14:09;31.70;1.00
17284;DHT22;8760;52.248;20.952;2022-09-03T10:16:40;31.80;1.00
17284;DHT22;8760;52.248;20.952;2022-09-03T10:19:16;32.10;1.00
17284;DHT22;8760;52.248;20.952;2022-09-03T10:21:48;32.10;1.00
17284;DHT22;8760;52.248;20.952;2022-09-03T10:24:31;32.40;1.00
17284;DHT22;8760;52.248;20.952;2022-09-03T10:26:59;32.20;1.00
17284;DHT22;8760;52.248;20.952;2022-09-03T10:29:26;31.40;1.00
17284;DHT22;8760;52.248;20.952;2022-09-03T10:32:01;31.80;1.00
17284;DHT22;8760;52.248;20.952;2022-09-03T10:34:38;31.70;1.00
17284;DHT22;8760;52.248;20.952;2022-09-03T10:37:17;31.30;1.00
17284;DHT22;8760;52.248;20.952;2022-09-03T10:40:00;31.80;1.00
17284;DHT22;8760;52.248;20.952;2022-09-03T10:42:40;32.00;1.00
17284;DHT22;8760;52.248;20.952;2022-09-03T10:45:17;31.40;1.00
17284;DHT22;8760;52.248;20.952;2022-09-03T10:48:01;30.30;1.00
17284;DHT22;8760;52.248;20.952;2022-09-03T10:50:43;29.20;1.00
17284;DHT22;8760;52.248;20.952;2022-09-03T10:53:21;28.50;1.00
17284;DHT22;8760;52.248;20.952;2022-09-03T10:55:57;28.00;1.00
17284;DHT22;8760;52.248;20.952;2022-09-03T10:58:46;27.40;1.00
17284;DHT22;8760;52.248;20.952;2022-09-03T11:01:20;26.70;1.00
17284;DHT22;8760;52.248;20.952;2022-09-03T11:03:58;26.50;1.00
17284;DHT22;8760;52.248;20.952;2022-09-03T11:06:39;25.90;1.00
17284;DHT22;8760;52.248;20.952;2022-09-03T11:09:16;25.80;1.00
17284;DHT22;8760;52.248;20.952;2022-09-03T11:11:48;25.60;1.00
17284;DHT22;8760;52.248;20.952;2022-09-03T11:14:31;25.10;1.00
17284;DHT22;8760;52.248;20.952;2022-09-03T11:17:02;25.20;1.00
17284;DHT22;8760;52.248;20.952;2022-09-03T11:19:35;25.10;1.00
17284;DHT22;8760;52.248;20.952;2022-09-03T11:22:06;24.90;1.00
17284;DHT22;8760;52.248;20.952;2022-09-03T11:24:38;24.50;1.00
17284;DHT22;8760;52.248;20.952;2022-09-03T11:27:19;24.10;1.00
17284;DHT22;8760;52.248;20.952;2022-09-03T11:29:52;24.00;1.00
17284;DHT22;8760;52.248;20.952;2022-09-03T11:32:24;24.10;1.00
17284;DHT22;8760;52.248;20.952;2022-09-03T11:34:53;24.20;1.00
17284;DHT22;8760;52.248;20.952;2022-09-03T11:37:23;24.00;1.00
17284;DHT22;8760;52.248;20.952;2022-09-03T11:39:56;24.10;1.00
17284;DHT22;8760;52.248;20.952;2022-09-03T11:42:27;24.20;1.00
17284;DHT22;8760;52.248;20.952;2022-09-03T11:45:00;24.40;1.00
17284;DHT22;8760;52.248;20.952;2022-09-03T11:47:39;24.50;1.00
17284;DHT22;8760;52.248;20.952;2022-09-03T11:50:15;24.60;1.00
17284;DHT22;8760;52.248;20.952;2022-09-03T11:52:47;24.30;1.00
17284;DHT22;8760;52.248;20.952;2022-09-03T11:55:27;24.10;1.00
17284;DHT22;8760;52.248;20.952;2022-09-03T11:57:56;24.00;1.00
17284;DHT22;8760;52.248;20.952;2022-09-03T12:00:23;24.00;1.00
17284;DHT22;8760;52.248;20.952;2022-09-03T12:02:54;24.10;1.00
17284;DHT22;8760;52.248;20.952;2022-09-03T12:05:29;23.90;1.00
17284;DHT22;8760;52.248;20.952;2022-09-03T12:11:16;23.70;1.00
17284;DHT22;8760;52.248;20.952;2022-09-03T12:13:50;23.70;1.00
17284;DHT22;8760;52.248;20.952;2022-09-03T12:19:23;23.30;1.00
17284;DHT22;8760;52.248;20.952;2022-09-03T12:21:51;23.30;1.00
17284;DHT22;8760;52.248;20.952;2022-09-03T12:24:19;23.30;1.00
17284;DHT22;8760;52.248;20.952;2022-09-03T12:26:49;23.20;1.00
17284;DHT22;8760;52.248;20.952;2022-09-03T12:29:22;23.30;1.00
17284;DHT22;8760;52.248;20.952;2022-09-03T12:31:49;23.50;1.00
17284;DHT22;8760;52.248;20.952;2022-09-03T12:34:17;23.50;1.00
17284;DHT22;8760;52.248;20.952;2022-09-03T12:36:46;23.50;1.00
17284;DHT22;8760;52.248;20.952;2022-09-03T12:39:15;23.70;1.00
17284;DHT22;8760;52.248;20.952;2022-09-03T12:42:02;23.70;1.00
17284;DHT22;8760;52.248;20.952;2022-09-03T12:44:31;23.60;1.00
17284;DHT22;8760;52.248;20.952;2022-09-03T12:47:03;23.50;1.00
17284;DHT22;8760;52.248;20.952;2022-09-03T12:49:35;23.50;1.00
17284;DHT22;8760;52.248;20.952;2022-09-03T12:52:06;23.40;1.00
17284;DHT22;8760;52.248;20.952;2022-09-03T12:54:36;23.40;1.00
17284;DHT22;8760;52.248;20.952;2022-09-03T12:57:08;23.40;1.00
17284;DHT22;8760;52.248;20.952;2022-09-03T12:59:35;23.40;1.00
17284;DHT22;8760;52.248;20.952;2022-09-03T13:02:12;23.40;1.00
17284;DHT22;8760;52.248;20.952;2022-09-03T13:04:40;23.40;1.00
17284;DHT22;8760;52.248;20.952;2022-09-03T13:07:11;23.40;1.00
17284;DHT22;8760;52.248;20.952;2022-09-03T13:09:41;23.30;1.00
17284;DHT22;8760;52.248;20.952;2022-09-03T13:12:21;23.20;1.00
17284;DHT22;8760;52.248;20.952;2022-09-03T13:14:49;23.30;1.00
17284;DHT22;8760;52.248;20.952;2022-09-03T13:17:26;23.30;1.00
17284;DHT22;8760;52.248;20.952;2022-09-03T13:20:16;23.50;1.00
17284;DHT22;8760;52.248;20.952;2022-09-03T13:22:59;23.40;1.00
17284;DHT22;8760;52.248;20.952;2022-09-03T13:25:32;23.60;1.00
17284;DHT22;8760;52.248;20.952;2022-09-03T13:28:08;23.60;1.00
17284;DHT22;8760;52.248;20.952;2022-09-03T13:30:47;23.50;1.00
17284;DHT22;8760;52.248;20.952;2022-09-03T13:33:21;23.50;1.00
17284;DHT22;8760;52.248;20.952;2022-09-03T13:35:53;23.10;1.00
17284;DHT22;8760;52.248;20.952;2022-09-03T13:38:29;22.80;1.00
17284;DHT22;8760;52.248;20.952;2022-09-03T13:41:00;22.70;1.00
17284;DHT22;8760;52.248;20.952;2022-09-03T13:43:36;22.80;1.00
17284;DHT22;8760;52.248;20.952;2022-09-03T13:46:06;22.80;1.00
17284;DHT22;8760;52.248;20.952;2022-09-03T13:48:37;22.80;1.00
17284;DHT22;8760;52.248;20.952;2022-09-03T13:51:25;22.70;1.00
17284;DHT22;8760;52.248;20.952;2022-09-03T13:54:03;22.60;1.00
17284;DHT22;8760;52.248;20.952;2022-09-03T13:56:48;22.60;1.00
17284;DHT22;8760;52.248;20.952;2022-09-03T13:59:23;22.70;1.00
17284;DHT22;8760;52.248;20.952;2022-09-03T14:02:04;22.80;1.00
17284;DHT22;8760;52.248;20.952;2022-09-03T14:04:42;22.90;1.00
17284;DHT22;8760;52.248;20.952;2022-09-03T14:07:14;23.00;1.00
17284;DHT22;8760;52.248;20.952;2022-09-03T14:09:47;23.00;1.00
17284;DHT22;8760;52.248;20.952;2022-09-03T14:12:21;22.80;1.00
17284;DHT22;8760;52.248;20.952;2022-09-03T14:14:55;22.80;1.00
17284;DHT22;8760;52.248;20.952;2022-09-03T14:17:31;22.70;1.00
17284;DHT22;8760;52.248;20.952;2022-09-03T14:20:05;22.80;1.00
17284;DHT22;8760;52.248;20.952;2022-09-03T14:22:46;22.50;1.00
17284;DHT22;8760;52.248;20.952;2022-09-03T14:25:16;22.40;1.00
17284;DHT22;8760;52.248;20.952;2022-09-03T14:27:43;22.50;1.00
17284;DHT22;8760;52.248;20.952;2022-09-03T14:30:24;22.60;1.00
17284;DHT22;8760;52.248;20.952;2022-09-03T14:33:00;22.50;1.00
17284;DHT22;8760;52.248;20.952;2022-09-03T14:35:43;22.50;1.00
17284;DHT22;8760;52.248;20.952;2022-09-03T14:38:52;22.50;1.00
17284;DHT22;8760;52.248;20.952;2022-09-03T14:41:33;22.50;1.00
17284;DHT22;8760;52.248;20.952;2022-09-03T14:44:26;22.40;1.00
17284;DHT22;8760;52.248;20.952;2022-09-03T14:47:06;22.50;1.00
17284;DHT22;8760;52.248;20.952;2022-09-03T14:49:44;22.50;1.00
17284;DHT22;8760;52.248;20.952;2022-09-03T14:52:26;22.60;1.00
17284;DHT22;8760;52.248;20.952;2022-09-03T14:55:14;22.60;1.00
17284;DHT22;8760;52.248;20.952;2022-09-03T14:57:57;22.80;1.00
17284;DHT22;8760;52.248;20.952;2022-09-03T15:00:33;22.90;1.00
17284;DHT22;8760;52.248;20.952;2022-09-03T15:03:30;23.00;1.00
17284;DHT22;8760;52.248;20.952;2022-09-03T15:06:09;23.00;1.00
17284;DHT22;8760;52.248;20.952;2022-09-03T15:08:58;23.00;1.00
17284;DHT22;8760;52.248;20.952;2022-09-03T15:11:32;23.10;1.00
17284;DHT22;8760;52.248;20.952;2022-09-03T15:14:05;23.30;1.00
17284;DHT22;8760;52.248;20.952;2022-09-03T15:16:44;23.40;1.00
17284;DHT22;8760;52.248;20.952;2022-09-03T15:19:44;23.40;1.00
17284;DHT22;8760;52.248;20.952;2022-09-03T15:22:23;23.40;1.00
17284;DHT22;8760;52.248;20.952;2022-09-03T15:24:57;23.40;1.00
17284;DHT22;8760;52.248;20.952;2022-09-03T15:27:43;23.60;1.00
17284;DHT22;8760;52.248;20.952;2022-09-03T15:30:14;23.40;1.00
17284;DHT22;8760;52.248;20.952;2022-09-03T15:32:58;23.30;1.00
17284;DHT22;8760;52.248;20.952;2022-09-03T15:35:38;23.10;1.00
17284;DHT22;8760;52.248;20.952;2022-09-03T15:38:17;23.00;1.00
17284;DHT22;8760;52.248;20.952;2022-09-03T15:40:50;22.80;1.00
17284;DHT22;8760;52.248;20.952;2022-09-03T15:43:24;22.60;1.00
17284;DHT22;8760;52.248;20.952;2022-09-03T15:45:54;22.40;1.00
17284;DHT22;8760;52.248;20.952;2022-09-03T15:48:31;22.30;1.00
17284;DHT22;8760;52.248;20.952;2022-09-03T15:51:10;22.20;1.00
17284;DHT22;8760;52.248;20.952;2022-09-03T15:53:44;22.10;1.00
17284;DHT22;8760;52.248;20.952;2022-09-03T15:56:20;22.00;1.00
17284;DHT22;8760;52.248;20.952;2022-09-03T15:58:53;22.00;1.00
17284;DHT22;8760;52.248;20.952;2022-09-03T16:01:29;21.80;1.00
17284;DHT22;8760;52.248;20.952;2022-09-03T16:04:04;21.70;1.00
17284;DHT22;8760;52.248;20.952;2022-09-03T16:06:45;21.60;1.00
17284;DHT22;8760;52.248;20.952;2022-09-03T16:09:21;21.40;1.00
17284;DHT22;8760;52.248;20.952;2022-09-03T16:11:55;21.40;1.00
17284;DHT22;8760;52.248;20.952;2022-09-03T16:14:29;21.30;1.00
17284;DHT22;8760;52.248;20.952;2022-09-03T16:17:02;21.30;1.00
17284;DHT22;8760;52.248;20.952;2022-09-03T16:19:36;21.20;1.00
17284;DHT22;8760;52.248;20.952;2022-09-03T16:22:12;21.20;1.00
17284;DHT22;8760;52.248;20.952;2022-09-03T16:24:45;21.10;1.00
17284;DHT22;8760;52.248;20.952;2022-09-03T16:27:16;21.00;1.00
17284;DHT22;8760;52.248;20.952;2022-09-03T16:29:56;20.90;1.00
17284;DHT22;8760;52.248;20.952;2022-09-03T16:32:30;20.80;1.00